createdAt,value
2022-07-26T00:00:14.191Z,61.73
2022-07-26T00:02:36.171Z,61.94
2022-07-26T00:04:58.060Z,61.60
2022-07-26T00:07:20.061Z,61.81
2022-07-26T00:09:46.343Z,61.52
2022-07-26T00:12:10.904Z,61.47
2022-07-26T00:14:32.978Z,61.66
2022-07-26T00:16:54.950Z,61.82
2022-07-26T00:19:17.353Z,61.95
2022-07-26T00:21:40.593Z,61.88
2022-07-26T00:24:07.361Z,61.98
2022-07-26T00:26:29.225Z,61.89
2022-07-26T00:28:51.097Z,61.93
2022-07-26T00:31:13.284Z,62.06
2022-07-26T00:33:35.223Z,62.16
2022-07-26T00:35:57.017Z,62.34
2022-07-26T00:38:18.894Z,62.20
2022-07-26T00:40:40.854Z,62.12
2022-07-26T00:43:02.984Z,62.19
2022-07-26T00:45:25.039Z,62.13
2022-07-26T00:47:47.051Z,62.66
2022-07-26T00:50:14.418Z,62.61
2022-07-26T00:52:36.701Z,62.67
2022-07-26T00:54:58.886Z,62.89
2022-07-26T00:57:24.607Z,62.84
2022-07-26T00:59:46.613Z,62.83
2022-07-26T01:02:10.915Z,63.09
2022-07-26T01:04:33.299Z,63.11
2022-07-26T01:06:55.644Z,63.08
2022-07-26T01:09:19.161Z,63.05
2022-07-26T01:11:41.129Z,63.16
2022-07-26T01:14:03.396Z,63.23
2022-07-26T01:16:25.724Z,63.31
2022-07-26T01:18:47.599Z,63.58
2022-07-26T01:21:13.841Z,63.71
2022-07-26T01:23:37.357Z,63.59
2022-07-26T01:25:59.164Z,63.69
2022-07-26T01:28:21.228Z,63.67
2022-07-26T01:30:43.064Z,63.88
2022-07-26T01:33:06.322Z,63.80
2022-07-26T01:35:29.039Z,64.02
2022-07-26T01:37:51.073Z,63.86
2022-07-26T01:40:14.301Z,64.04
2022-07-26T01:42:36.261Z,63.99
2022-07-26T01:44:58.158Z,64.16
2022-07-26T01:47:19.988Z,64.07
2022-07-26T01:49:41.826Z,63.97
2022-07-26T01:52:03.878Z,64.53
2022-07-26T01:54:25.723Z,64.29
2022-07-26T01:56:47.603Z,64.44
2022-07-26T01:59:09.425Z,64.57
2022-07-26T02:01:38.942Z,64.79
2022-07-26T02:04:01.809Z,64.88
2022-07-26T02:06:23.660Z,65.40
2022-07-26T02:08:45.423Z,65.96
2022-07-26T02:11:07.300Z,66.34
2022-07-26T02:13:35.617Z,67.04
2022-07-26T02:15:59.032Z,67.36
2022-07-26T02:18:21.028Z,67.80
2022-07-26T02:20:42.908Z,67.91
2022-07-26T02:23:05.382Z,67.93
2022-07-26T02:25:27.732Z,68.09
2022-07-26T02:27:49.574Z,68.92
2022-07-26T02:30:12.337Z,68.63
2022-07-26T02:32:34.191Z,68.71
2022-07-26T02:34:56.075Z,68.83
2022-07-26T02:37:18.045Z,68.95
2022-07-26T02:39:39.816Z,69.36
2022-07-26T02:42:03.927Z,69.65
2022-07-26T02:44:27.699Z,69.74
2022-07-26T02:46:50.172Z,69.91
2022-07-26T02:49:12.085Z,70.13
2022-07-26T02:51:33.999Z,69.90
2022-07-26T02:53:55.884Z,69.66
2022-07-26T02:56:17.953Z,69.51
2022-07-26T02:58:39.816Z,69.96
2022-07-26T03:01:01.693Z,69.92
2022-07-26T03:03:23.767Z,69.85
2022-07-26T03:05:45.571Z,69.99
2022-07-26T03:08:07.779Z,69.78
2022-07-26T03:10:29.690Z,69.90
2022-07-26T03:12:52.172Z,70.27
2022-07-26T03:15:14.665Z,69.84
2022-07-26T03:17:36.713Z,69.90
2022-07-26T03:19:58.589Z,70.00
2022-07-26T03:22:20.558Z,70.05
2022-07-26T03:24:42.398Z,70.30
2022-07-26T03:27:04.622Z,70.24
2022-07-26T03:29:26.488Z,70.54
2022-07-26T03:31:48.367Z,70.25
2022-07-26T03:34:10.817Z,70.22
2022-07-26T03:36:33.146Z,70.61
2022-07-26T03:38:54.934Z,70.45
2022-07-26T03:41:16.756Z,70.39
2022-07-26T03:43:38.594Z,70.46
2022-07-26T03:46:00.419Z,70.78
2022-07-26T03:48:22.270Z,70.82
2022-07-26T03:50:44.135Z,70.93
2022-07-26T03:53:05.964Z,71.11
2022-07-26T03:55:46.185Z,71.07
2022-07-26T03:58:08.015Z,71.15
2022-07-26T04:00:29.846Z,71.24
2022-07-26T04:02:51.760Z,71.18
2022-07-26T04:05:13.623Z,71.27
2022-07-26T04:07:43.157Z,71.46
2022-07-26T04:10:15.820Z,71.73
2022-07-26T04:12:40.302Z,72.09
2022-07-26T04:15:02.116Z,72.26
2022-07-26T04:17:23.945Z,72.72
2022-07-26T04:19:45.871Z,72.85
2022-07-26T04:22:07.696Z,72.81
2022-07-26T04:24:29.532Z,72.89
2022-07-26T04:26:51.421Z,72.61
2022-07-26T04:29:15.112Z,72.86
2022-07-26T04:31:36.942Z,73.02
2022-07-26T04:33:58.794Z,72.98
2022-07-26T04:36:20.632Z,72.95
2022-07-26T04:38:42.546Z,72.88
2022-07-26T04:41:04.821Z,72.96
2022-07-26T04:43:26.692Z,72.95
2022-07-26T04:45:48.955Z,73.20
2022-07-26T04:48:10.857Z,73.05
2022-07-26T04:50:32.799Z,73.65
2022-07-26T04:52:59.889Z,73.33
2022-07-26T04:55:23.075Z,73.18
2022-07-26T04:57:47.434Z,73.13
2022-07-26T05:00:22.193Z,72.95
2022-07-26T05:02:44.564Z,72.92
2022-07-26T05:05:07.746Z,72.95
2022-07-26T05:07:50.964Z,73.09
2022-07-26T05:10:15.091Z,72.89
2022-07-26T05:12:37.311Z,73.07
2022-07-26T05:14:59.173Z,72.51
2022-07-26T05:17:21.065Z,72.33
2022-07-26T05:19:48.978Z,72.57
2022-07-26T05:22:10.993Z,72.89
2022-07-26T05:24:32.824Z,72.74
2022-07-26T05:26:58.537Z,72.54
2022-07-26T05:29:20.514Z,72.62
2022-07-26T05:31:42.313Z,72.53
2022-07-26T05:34:04.132Z,72.61
2022-07-26T05:36:26.004Z,72.48
2022-07-26T05:38:47.871Z,72.29
2022-07-26T05:41:09.780Z,72.24
2022-07-26T05:43:40.639Z,72.30
2022-07-26T05:46:09.254Z,72.05
2022-07-26T05:48:31.548Z,72.15
2022-07-26T05:50:53.366Z,72.02
2022-07-26T05:53:15.338Z,71.91
2022-07-26T05:55:37.251Z,71.71
2022-07-26T05:57:59.094Z,71.42
2022-07-26T06:00:21.091Z,70.81
2022-07-26T06:02:43.075Z,70.61
2022-07-26T06:05:05.550Z,70.65
2022-07-26T06:07:27.399Z,69.95
2022-07-26T06:09:49.199Z,69.83
2022-07-26T06:12:11.237Z,69.75
2022-07-26T06:14:33.469Z,69.47
2022-07-26T06:16:55.709Z,69.40
2022-07-26T06:19:17.911Z,69.16
2022-07-26T06:21:39.931Z,68.50
2022-07-26T06:24:01.897Z,68.47
2022-07-26T06:26:26.519Z,68.41
2022-07-26T06:28:50.508Z,68.33
2022-07-26T06:31:12.442Z,68.11
2022-07-26T06:33:34.320Z,67.83
2022-07-26T06:35:56.189Z,67.55
2022-07-26T06:38:18.039Z,67.34
2022-07-26T06:40:39.941Z,66.90
2022-07-26T06:43:04.591Z,66.73
2022-07-26T06:45:27.772Z,66.48
2022-07-26T06:47:49.552Z,66.32
2022-07-26T06:50:12.434Z,66.02
2022-07-26T06:52:34.514Z,65.88
2022-07-26T06:54:56.342Z,65.38
2022-07-26T06:57:18.139Z,64.29
2022-07-26T06:59:40.020Z,64.39
2022-07-26T07:02:01.999Z,64.64
2022-07-26T07:04:24.279Z,63.94
2022-07-26T07:06:46.273Z,63.11
2022-07-26T07:09:10.917Z,62.73
2022-07-26T07:11:35.034Z,62.74
2022-07-26T07:13:57.563Z,61.59
2022-07-26T07:16:19.450Z,62.03
2022-07-26T07:18:41.413Z,62.06
2022-07-26T07:21:03.315Z,61.64
2022-07-26T07:23:25.333Z,59.90
2022-07-26T07:25:47.190Z,59.50
2022-07-26T07:28:10.768Z,60.54
2022-07-26T07:30:32.898Z,60.82
2022-07-26T07:32:55.889Z,60.61
2022-07-26T07:35:18.436Z,60.39
2022-07-26T07:37:52.739Z,60.21
2022-07-26T07:40:15.603Z,60.01
2022-07-26T07:42:37.552Z,59.43
2022-07-26T07:44:59.531Z,58.91
2022-07-26T07:47:22.224Z,58.97
2022-07-26T07:49:44.117Z,58.11
2022-07-26T07:52:06.558Z,59.17
2022-07-26T07:54:28.393Z,58.81
2022-07-26T07:56:51.374Z,58.68
2022-07-26T07:59:13.454Z,58.90
2022-07-26T08:01:39.609Z,59.24
2022-07-26T08:04:02.588Z,58.84
2022-07-26T08:06:24.568Z,59.40
2022-07-26T08:08:48.449Z,59.29
2022-07-26T08:11:10.746Z,58.86
2022-07-26T08:13:34.449Z,59.32
2022-07-26T08:15:56.966Z,59.83
2022-07-26T08:18:22.906Z,61.34
2022-07-26T08:20:45.351Z,62.25
2022-07-26T08:23:07.211Z,62.76
2022-07-26T08:25:29.174Z,63.42
2022-07-26T08:28:09.333Z,64.66
2022-07-26T08:30:33.957Z,65.24
2022-07-26T08:32:55.837Z,65.88
2022-07-26T08:35:20.028Z,66.62
2022-07-26T08:37:42.165Z,67.73
2022-07-26T08:40:06.865Z,67.49
2022-07-26T08:42:28.721Z,67.45
2022-07-26T08:44:52.581Z,66.89
2022-07-26T08:47:17.705Z,66.21
2022-07-26T08:49:57.519Z,64.47
2022-07-26T08:52:19.349Z,63.79
2022-07-26T08:54:52.084Z,63.66
2022-07-26T08:57:14.560Z,63.29
2022-07-26T08:59:36.448Z,62.71
2022-07-26T09:02:17.129Z,63.31
2022-07-26T09:04:46.526Z,62.88
2022-07-26T09:07:17.598Z,62.80
2022-07-26T09:09:56.676Z,61.57
2022-07-26T09:12:21.031Z,61.32
2022-07-26T09:14:46.680Z,62.49
2022-07-26T09:17:08.573Z,62.42
2022-07-26T09:19:30.449Z,63.50
2022-07-26T09:21:55.561Z,63.51
2022-07-26T09:24:35.252Z,63.34
2022-07-26T09:27:01.615Z,62.79
2022-07-26T09:29:23.457Z,62.48
2022-07-26T09:31:45.587Z,61.91
2022-07-26T09:34:08.431Z,62.37
2022-07-26T09:36:32.355Z,62.58
2022-07-26T09:38:59.044Z,62.75
2022-07-26T09:41:37.321Z,62.38
2022-07-26T09:44:04.698Z,62.23
2022-07-26T09:46:29.775Z,61.52
2022-07-26T09:49:10.862Z,61.46
2022-07-26T09:51:48.588Z,61.00
2022-07-26T09:54:17.157Z,61.23
2022-07-26T09:56:52.913Z,60.48
2022-07-26T09:59:21.987Z,60.70
2022-07-26T10:01:45.909Z,60.74
2022-07-26T10:04:08.169Z,60.03
2022-07-26T10:06:30.683Z,60.10
2022-07-26T10:08:53.104Z,59.47
2022-07-26T10:11:16.850Z,59.96
2022-07-26T10:13:39.782Z,59.70
2022-07-26T10:16:02.142Z,58.78
2022-07-26T10:18:36.168Z,58.67
2022-07-26T10:20:58.307Z,58.21
2022-07-26T10:23:38.264Z,58.07
2022-07-26T10:26:02.637Z,57.77
2022-07-26T10:28:28.914Z,58.19
2022-07-26T10:30:50.976Z,57.99
2022-07-26T10:33:17.895Z,56.56
2022-07-26T10:35:44.681Z,56.40
2022-07-26T10:38:13.417Z,56.50
2022-07-26T10:40:37.446Z,56.10
2022-07-26T10:46:16.475Z,55.87
2022-07-26T10:48:59.120Z,55.54
2022-07-26T10:51:28.460Z,55.08
2022-07-26T10:54:04.480Z,55.10
2022-07-26T10:56:32.895Z,54.29
2022-07-26T10:58:55.596Z,53.95
2022-07-26T11:01:17.520Z,53.66
2022-07-26T11:03:43.596Z,53.40
2022-07-26T11:06:17.334Z,52.59
2022-07-26T11:08:40.234Z,52.29
2022-07-26T11:11:04.404Z,53.27
2022-07-26T11:13:26.353Z,54.14
2022-07-26T11:16:01.368Z,54.07
2022-07-26T11:18:35.277Z,54.04
2022-07-26T11:21:12.508Z,54.92
2022-07-26T11:23:37.162Z,54.31
2022-07-26T11:26:14.681Z,55.13
2022-07-26T11:29:06.486Z,56.39
2022-07-26T11:31:51.094Z,58.38
2022-07-26T11:34:25.526Z,60.27
2022-07-26T11:36:49.107Z,61.51
2022-07-26T11:39:21.737Z,62.87
2022-07-26T11:41:43.670Z,62.99
2022-07-26T11:44:06.594Z,63.08
2022-07-26T11:46:38.652Z,63.51
2022-07-26T11:49:02.015Z,63.63
2022-07-26T11:51:25.187Z,63.82
2022-07-26T11:53:48.113Z,62.59
2022-07-26T11:56:23.564Z,61.11
2022-07-26T11:58:52.112Z,61.32
2022-07-26T12:01:17.156Z,61.63
2022-07-26T12:03:49.003Z,62.08
2022-07-26T12:06:18.233Z,61.81
2022-07-26T12:08:46.183Z,61.65
2022-07-26T12:11:10.499Z,61.92
2022-07-26T12:13:39.847Z,61.86
2022-07-26T12:16:14.526Z,62.19
2022-07-26T12:18:36.709Z,61.94
2022-07-26T12:21:09.473Z,62.00
2022-07-26T12:23:49.984Z,62.06
2022-07-26T12:26:26.535Z,62.30
2022-07-26T12:28:48.405Z,62.37
2022-07-26T12:31:32.999Z,62.14
2022-07-26T12:33:55.626Z,62.07
2022-07-26T12:36:26.970Z,61.91
2022-07-26T12:38:53.706Z,61.99
2022-07-26T12:41:38.451Z,61.31
2022-07-26T12:44:00.531Z,60.73
2022-07-26T12:46:22.374Z,60.88
2022-07-26T12:48:46.897Z,60.80
2022-07-26T12:51:08.706Z,60.79
2022-07-26T12:53:36.903Z,60.60
2022-07-26T12:55:58.749Z,59.38
2022-07-26T12:58:20.551Z,59.11
2022-07-26T13:00:42.433Z,59.28
2022-07-26T13:03:04.578Z,58.92
2022-07-26T13:05:26.508Z,58.79
2022-07-26T13:07:48.548Z,57.92
2022-07-26T13:12:52.868Z,58.40
2022-07-26T13:15:14.698Z,57.66
2022-07-26T13:17:36.551Z,57.60
2022-07-26T13:19:58.508Z,57.89
2022-07-26T13:22:20.970Z,58.83
2022-07-26T13:24:45.205Z,59.62
2022-07-26T13:27:08.893Z,60.54
2022-07-26T13:29:31.029Z,61.78
2022-07-26T13:31:53.972Z,62.30
2022-07-26T13:34:15.799Z,63.09
2022-07-26T13:36:38.272Z,63.20
2022-07-26T13:39:00.761Z,63.47
2022-07-26T13:41:23.312Z,64.07
2022-07-26T13:43:45.152Z,64.20
2022-07-26T13:46:07.053Z,64.22
2022-07-26T13:48:29.195Z,64.86
2022-07-26T13:50:51.232Z,65.30
2022-07-26T13:53:13.377Z,64.94
2022-07-26T13:55:35.210Z,64.69
2022-07-26T13:57:58.098Z,64.34
2022-07-26T14:00:20.532Z,63.81
2022-07-26T14:02:42.500Z,63.36
2022-07-26T14:05:04.880Z,61.58
2022-07-26T14:07:27.037Z,60.39
2022-07-26T14:09:48.948Z,59.58
2022-07-26T14:12:14.094Z,60.30
2022-07-26T14:14:36.170Z,60.75
2022-07-26T14:16:58.228Z,60.60
2022-07-26T14:19:20.225Z,59.33
2022-07-26T14:21:47.260Z,59.30
2022-07-26T14:24:21.571Z,58.96
2022-07-26T14:26:43.400Z,58.70
2022-07-26T14:29:05.336Z,58.69
2022-07-26T14:31:27.420Z,58.46
2022-07-26T14:33:49.510Z,58.31
2022-07-26T14:36:13.326Z,57.63
2022-07-26T14:38:35.420Z,57.44
2022-07-26T14:40:58.132Z,57.05
2022-07-26T14:43:19.993Z,57.20
2022-07-26T14:45:42.807Z,56.79
2022-07-26T14:48:05.035Z,56.83
2022-07-26T14:50:27.086Z,56.19
2022-07-26T14:52:49.818Z,56.28
2022-07-26T14:55:12.833Z,55.93
2022-07-26T14:57:39.491Z,56.10
2022-07-26T15:00:02.200Z,56.55
2022-07-26T15:02:24.073Z,55.79
2022-07-26T15:04:46.042Z,55.50
2022-07-26T15:07:08.185Z,55.03
2022-07-26T15:09:30.035Z,54.41
2022-07-26T15:11:52.140Z,54.03
2022-07-26T15:14:14.234Z,53.85
2022-07-26T15:16:36.369Z,54.52
2022-07-26T15:18:58.675Z,54.49
2022-07-26T15:21:20.696Z,54.70
2022-07-26T15:23:42.623Z,54.00
2022-07-26T15:26:04.517Z,53.45
2022-07-26T15:28:26.793Z,53.31
2022-07-26T15:30:49.013Z,52.86
2022-07-26T15:33:11.414Z,52.69
2022-07-26T15:35:35.306Z,52.88
2022-07-26T15:37:58.058Z,52.54
2022-07-26T15:40:21.078Z,52.98
2022-07-26T15:42:47.277Z,52.79
2022-07-26T15:45:12.197Z,52.49
2022-07-26T15:47:53.920Z,52.71
2022-07-26T15:50:17.853Z,52.75
2022-07-26T15:52:45.078Z,52.77
2022-07-26T15:55:09.014Z,52.24
2022-07-26T15:57:30.963Z,52.82
2022-07-26T15:59:52.859Z,52.97
2022-07-26T16:02:15.087Z,53.17
2022-07-26T16:04:37.013Z,53.05
2022-07-26T16:06:58.853Z,52.77
2022-07-26T16:09:20.727Z,51.67
2022-07-26T16:11:42.919Z,51.25
2022-07-26T16:14:04.777Z,50.74
2022-07-26T16:16:26.718Z,51.06
2022-07-26T16:18:48.756Z,50.74
2022-07-26T16:21:10.668Z,50.30
2022-07-26T16:23:32.809Z,50.25
2022-07-26T16:25:54.591Z,50.29
2022-07-26T16:28:16.825Z,50.54
2022-07-26T16:30:40.735Z,50.74
2022-07-26T16:33:04.084Z,49.80
2022-07-26T16:35:26.059Z,49.91
2022-07-26T16:37:49.486Z,49.79
2022-07-26T16:40:11.973Z,49.55
2022-07-26T16:42:34.206Z,49.42
2022-07-26T16:44:56.152Z,49.37
2022-07-26T16:47:18.367Z,49.36
2022-07-26T16:49:40.297Z,49.63
2022-07-26T16:52:02.188Z,49.84
2022-07-26T16:54:25.565Z,49.95
2022-07-26T16:56:47.668Z,49.79
2022-07-26T16:59:10.678Z,49.67
2022-07-26T17:01:32.675Z,49.24
2022-07-26T17:03:54.650Z,48.80
2022-07-26T17:06:16.490Z,48.37
2022-07-26T17:08:38.712Z,48.58
2022-07-26T17:11:00.726Z,48.34
2022-07-26T17:13:22.560Z,48.38
2022-07-26T17:15:44.529Z,48.56
2022-07-26T17:18:06.859Z,48.27
2022-07-26T17:20:29.381Z,48.27
2022-07-26T17:22:51.440Z,48.06
2022-07-26T17:25:13.431Z,48.30
2022-07-26T17:27:37.977Z,48.39
2022-07-26T17:30:04.394Z,49.09
2022-07-26T17:32:28.267Z,49.57
2022-07-26T17:34:50.105Z,49.63
2022-07-26T17:37:11.996Z,49.25
2022-07-26T17:39:53.354Z,49.39
2022-07-26T17:42:16.153Z,49.56
2022-07-26T17:44:38.559Z,49.67
2022-07-26T17:47:01.479Z,49.75
2022-07-26T17:49:25.494Z,49.69
2022-07-26T17:51:47.411Z,50.02
2022-07-26T17:54:10.209Z,49.75
2022-07-26T17:56:32.119Z,50.13
2022-07-26T17:58:53.964Z,49.79
2022-07-26T18:01:15.919Z,50.09
2022-07-26T18:03:37.972Z,50.22
2022-07-26T18:05:59.980Z,49.66
2022-07-26T18:08:26.997Z,50.06
2022-07-26T18:10:51.254Z,49.79
2022-07-26T18:13:13.279Z,49.63
2022-07-26T18:15:35.356Z,49.49
2022-07-26T18:17:57.275Z,49.10
2022-07-26T18:20:19.470Z,48.90
2022-07-26T18:22:41.353Z,49.38
2022-07-26T18:25:04.910Z,49.06
2022-07-26T18:27:28.289Z,49.73
2022-07-26T18:29:50.306Z,49.83
2022-07-26T18:32:12.218Z,49.67
2022-07-26T18:34:34.214Z,49.86
2022-07-26T18:36:57.059Z,50.13
2022-07-26T18:39:19.257Z,50.16
2022-07-26T18:41:41.354Z,50.08
2022-07-26T18:44:03.183Z,50.12
2022-07-26T18:46:25.688Z,50.28
2022-07-26T18:48:47.577Z,49.68
2022-07-26T18:51:10.714Z,50.08
2022-07-26T18:53:32.740Z,49.92
2022-07-26T18:55:57.314Z,49.86
2022-07-26T18:58:19.088Z,50.37
2022-07-26T19:00:47.036Z,50.44
2022-07-26T19:03:08.947Z,50.54
2022-07-26T19:05:31.213Z,50.36
2022-07-26T19:07:57.407Z,50.42
2022-07-26T19:10:20.376Z,50.55
2022-07-26T19:12:43.748Z,50.76
2022-07-26T19:15:07.777Z,50.76
2022-07-26T19:17:32.941Z,50.64
2022-07-26T19:19:55.844Z,50.99
2022-07-26T19:22:20.074Z,50.86
2022-07-26T19:24:42.961Z,51.27
2022-07-26T19:27:04.862Z,51.32
2022-07-26T19:29:26.854Z,51.51
2022-07-26T19:31:48.742Z,51.58
2022-07-26T19:34:10.673Z,51.50
2022-07-26T19:36:32.873Z,51.80
2022-07-26T19:38:57.070Z,52.02
2022-07-26T19:41:20.784Z,52.07
2022-07-26T19:43:42.700Z,52.27
2022-07-26T19:46:04.993Z,52.49
2022-07-26T19:48:26.838Z,52.37
2022-07-26T19:50:50.720Z,52.55
2022-07-26T19:53:12.728Z,52.80
2022-07-26T19:55:34.548Z,52.90
2022-07-26T19:57:56.457Z,53.05
2022-07-26T20:00:19.015Z,53.15
2022-07-26T20:02:41.730Z,53.57
2022-07-26T20:05:05.548Z,53.44
2022-07-26T20:07:27.780Z,53.61
2022-07-26T20:09:50.785Z,53.77
2022-07-26T20:12:12.656Z,53.78
2022-07-26T20:14:34.685Z,54.26
2022-07-26T20:16:58.041Z,54.20
2022-07-26T20:19:20.045Z,54.34
2022-07-26T20:21:42.002Z,54.58
2022-07-26T20:24:04.249Z,54.61
2022-07-26T20:26:26.207Z,54.94
2022-07-26T20:28:49.056Z,55.07
2022-07-26T20:31:12.349Z,55.39
2022-07-26T20:33:34.194Z,55.83
2022-07-26T20:35:56.109Z,56.00
2022-07-26T20:38:19.620Z,56.44
2022-07-26T20:40:41.432Z,56.43
2022-07-26T20:43:04.499Z,57.01
2022-07-26T20:45:26.377Z,56.87
2022-07-26T20:47:48.190Z,56.91
2022-07-26T20:50:11.829Z,57.24
2022-07-26T20:52:33.675Z,57.31
2022-07-26T20:54:55.449Z,57.36
2022-07-26T20:57:17.291Z,57.44
2022-07-26T20:59:39.328Z,57.70
2022-07-26T21:02:01.474Z,57.67
2022-07-26T21:04:23.527Z,57.73
2022-07-26T21:06:45.556Z,57.90
2022-07-26T21:09:09.930Z,57.88
2022-07-26T21:11:32.695Z,58.09
2022-07-26T21:13:54.749Z,58.15
2022-07-26T21:16:16.783Z,58.22
2022-07-26T21:18:39.019Z,58.11
2022-07-26T21:21:01.680Z,58.19
2022-07-26T21:23:23.500Z,58.29
2022-07-26T21:25:45.438Z,58.17
2022-07-26T21:28:07.296Z,58.04
2022-07-26T21:30:29.332Z,58.20
2022-07-26T21:32:51.150Z,58.35
2022-07-26T21:35:13.135Z,58.43
2022-07-26T21:37:35.022Z,58.21
2022-07-26T21:39:56.900Z,58.15
2022-07-26T21:42:25.864Z,58.28
2022-07-26T21:44:48.736Z,58.32
2022-07-26T21:47:10.608Z,58.38
2022-07-26T21:49:33.400Z,58.42
2022-07-26T21:51:55.200Z,58.61
2022-07-26T21:54:17.033Z,58.65
2022-07-26T21:56:39.330Z,58.82
2022-07-26T21:59:01.323Z,58.88
2022-07-26T22:01:23.221Z,58.92
2022-07-26T22:03:45.111Z,59.02
2022-07-26T22:06:08.675Z,59.02
2022-07-26T22:08:31.733Z,59.03
2022-07-26T22:10:54.513Z,59.25
2022-07-26T22:13:16.561Z,59.24
2022-07-26T22:15:38.503Z,59.28
2022-07-26T22:18:02.048Z,59.32
2022-07-26T22:20:23.882Z,59.44
2022-07-26T22:22:45.725Z,59.54
2022-07-26T22:25:08.282Z,59.62
2022-07-26T22:27:30.292Z,59.81
2022-07-26T22:29:52.202Z,59.87
2022-07-26T22:32:14.131Z,60.00
2022-07-26T22:34:36.002Z,60.43
2022-07-26T22:36:58.508Z,60.72
2022-07-26T22:39:20.279Z,60.97
2022-07-26T22:42:12.649Z,61.01
2022-07-26T22:44:24.012Z,61.02
2022-07-26T22:46:45.809Z,61.23
2022-07-26T22:49:09.611Z,61.58
2022-07-26T22:51:36.968Z,61.54
2022-07-26T22:53:58.819Z,61.74
2022-07-26T22:56:20.624Z,61.89
2022-07-26T22:58:42.476Z,62.12
2022-07-26T23:01:05.870Z,62.31
2022-07-26T23:03:28.022Z,62.26
2022-07-26T23:05:52.407Z,62.50
2022-07-26T23:08:45.647Z,62.74
2022-07-26T23:10:57.838Z,62.71
2022-07-26T23:13:19.757Z,62.98
2022-07-26T23:15:41.552Z,62.87
2022-07-26T23:18:03.374Z,62.99
2022-07-26T23:20:25.192Z,63.28
2022-07-26T23:22:47.062Z,63.13
2022-07-26T23:25:09.270Z,63.40
2022-07-26T23:27:31.073Z,63.58
2022-07-26T23:29:53.119Z,63.42
2022-07-26T23:32:14.893Z,63.37
2022-07-26T23:34:36.777Z,63.62
2022-07-26T23:36:58.701Z,63.51
2022-07-26T23:39:20.759Z,63.74
2022-07-26T23:41:42.625Z,63.71
2022-07-26T23:44:04.906Z,63.86
2022-07-26T23:46:27.305Z,63.83
2022-07-26T23:48:50.440Z,63.99
2022-07-26T23:51:12.637Z,63.95
2022-07-26T23:53:34.814Z,63.95
2022-07-26T23:55:56.637Z,64.04
2022-07-26T23:58:18.419Z,64.25
